createdAt,value
2022-10-20T00:01:22.798Z,1.29
2022-10-20T00:05:20.475Z,1.29
2022-10-20T00:09:21.137Z,1.29
2022-10-20T00:13:20.896Z,1.29
2022-10-20T00:17:20.763Z,1.29
2022-10-20T00:21:20.886Z,1.29
2022-10-20T00:25:20.108Z,1.29
2022-10-20T00:29:20.923Z,1.29
2022-10-20T00:33:20.373Z,1.29
2022-10-20T00:37:25.286Z,1.29
2022-10-20T00:41:20.405Z,1.29
2022-10-20T00:45:20.882Z,1.3
2022-10-20T00:49:20.188Z,1.3
2022-10-20T00:53:21.438Z,1.3
2022-10-20T00:57:21.051Z,1.3
2022-10-20T01:01:26.090Z,1.3
2022-10-20T01:05:21.018Z,1.3
2022-10-20T01:09:20.579Z,1.3
2022-10-20T01:13:20.090Z,1.3
2022-10-20T01:17:20.566Z,1.3
2022-10-20T01:21:20.633Z,1.3
2022-10-20T01:25:20.060Z,1.3
2022-10-20T01:29:20.035Z,1.3
2022-10-20T01:33:21.011Z,1.3
2022-10-20T01:37:33.963Z,1.3
2022-10-20T01:41:20.267Z,1.3
2022-10-20T01:45:20.435Z,1.3
2022-10-20T01:49:20.313Z,1.3
2022-10-20T01:53:20.784Z,1.3
2022-10-20T01:57:20.490Z,1.3
2022-10-20T02:01:23.990Z,1.3
2022-10-20T02:05:20.457Z,1.3
2022-10-20T02:09:20.900Z,0.33
2022-10-20T02:13:20.959Z,0.33
2022-10-20T02:17:20.407Z,0.33
2022-10-20T02:21:20.101Z,0.33
2022-10-20T02:25:20.318Z,0.33
2022-10-20T02:29:20.131Z,0.33
2022-10-20T02:33:21.058Z,0.33
2022-10-20T02:37:21.007Z,0.33
2022-10-20T02:41:20.993Z,0.33
2022-10-20T02:45:20.278Z,0.33
2022-10-20T02:49:24.975Z,0.33
2022-10-20T02:53:20.164Z,0.33
2022-10-20T02:57:23.861Z,0.33
2022-10-20T03:01:23.352Z,0.33
2022-10-20T03:05:20.487Z,0.33
2022-10-20T03:09:20.911Z,0.33
2022-10-20T03:13:22.978Z,0.33
2022-10-20T03:17:20.381Z,0.27
2022-10-20T03:21:20.900Z,0.27
2022-10-20T03:25:20.327Z,0.27
2022-10-20T03:29:20.668Z,0.27
2022-10-20T03:33:20.567Z,0.27
2022-10-20T03:37:20.703Z,0.27
2022-10-20T03:41:20.680Z,0.27
2022-10-20T03:45:20.364Z,0.27
2022-10-20T03:49:20.778Z,0.27
2022-10-20T03:53:21.544Z,0.27
2022-10-20T03:57:20.199Z,0.27
2022-10-20T04:01:21.889Z,0.27
2022-10-20T04:05:20.466Z,0.27
2022-10-20T04:09:21.293Z,0.27
2022-10-20T04:13:20.940Z,0.27
2022-10-20T04:17:21.000Z,0.27
2022-10-20T04:21:24.365Z,0.27
2022-10-20T04:25:19.904Z,0.27
2022-10-20T04:29:20.965Z,0.27
2022-10-20T04:33:20.479Z,0.27
2022-10-20T04:37:20.223Z,0.27
2022-10-20T04:41:25.800Z,0.27
2022-10-20T04:45:20.775Z,0.27
2022-10-20T04:49:20.292Z,0.27
2022-10-20T04:53:20.221Z,0.27
2022-10-20T04:57:20.498Z,0.27
2022-10-20T05:01:22.911Z,0.27
2022-10-20T05:05:20.279Z,0.27
2022-10-20T05:09:21.730Z,0.27
2022-10-20T05:13:22.516Z,0.27
2022-10-20T05:17:21.503Z,0.27
2022-10-20T05:21:43.448Z,0.27
2022-10-20T05:25:57.846Z,0.27
2022-10-20T05:29:20.131Z,0.27
2022-10-20T05:33:21.064Z,0.27
2022-10-20T05:37:27.226Z,0.27
2022-10-20T05:41:20.135Z,0.27
2022-10-20T05:45:20.259Z,0.27
2022-10-20T05:49:27.245Z,0.27
2022-10-20T05:53:21.038Z,0.27
2022-10-20T05:57:20.513Z,0.27
2022-10-20T06:01:23.208Z,0.27
2022-10-20T06:05:20.957Z,0.27
2022-10-20T06:09:20.738Z,0.27
2022-10-20T06:13:21.122Z,0.27
2022-10-20T06:17:20.115Z,0.27
2022-10-20T06:21:20.486Z,0.27
2022-10-20T06:25:20.342Z,0.27
2022-10-20T06:29:26.676Z,0.27
2022-10-20T06:33:22.428Z,0.27
2022-10-20T06:37:20.768Z,0.27
2022-10-20T06:41:20.852Z,0.27
2022-10-20T06:45:20.909Z,0.27
2022-10-20T06:49:21.615Z,0.27
2022-10-20T06:53:20.710Z,0.27
2022-10-20T06:57:20.700Z,0.27
2022-10-20T07:01:23.037Z,0.27
2022-10-20T07:05:20.960Z,0.27
2022-10-20T07:09:20.893Z,0.27
2022-10-20T07:13:20.885Z,0.27
2022-10-20T07:17:20.927Z,0.27
2022-10-20T07:21:20.273Z,0.27
2022-10-20T07:25:20.794Z,0.27
2022-10-20T07:29:20.116Z,0.27
2022-10-20T07:33:21.265Z,0.27
2022-10-20T07:37:21.376Z,0.27
2022-10-20T07:41:23.976Z,0.27
2022-10-20T07:45:20.094Z,0.27
2022-10-20T07:49:56.563Z,0.27
2022-10-20T07:53:20.832Z,0.27
2022-10-20T07:57:20.132Z,0.27
2022-10-20T08:01:23.470Z,0.27
2022-10-20T08:05:20.984Z,0.27
2022-10-20T08:09:20.400Z,0.27
2022-10-20T08:13:20.684Z,0.27
2022-10-20T08:17:25.717Z,0.27
2022-10-20T08:21:23.804Z,0.27
2022-10-20T08:25:20.709Z,0.15
2022-10-20T08:29:23.311Z,0.37
2022-10-20T08:33:20.889Z,0.4
2022-10-20T08:37:20.053Z,0.53
2022-10-20T08:41:20.381Z,0.61
2022-10-20T08:45:21.018Z,0.62
2022-10-20T08:49:20.000Z,0.68
2022-10-20T08:53:20.362Z,0.73
2022-10-20T08:57:20.274Z,0.73
2022-10-20T09:01:29.053Z,0.78
2022-10-20T09:05:23.250Z,0.82
2022-10-20T09:09:20.964Z,0.82
2022-10-20T09:13:27.309Z,0.82
2022-10-20T09:17:57.088Z,0.82
2022-10-20T09:21:20.359Z,0.82
2022-10-20T09:25:20.021Z,0.82
2022-10-20T09:29:48.659Z,0.82
2022-10-20T09:33:55.616Z,0.82
2022-10-20T09:37:20.720Z,0.82
2022-10-20T09:41:20.294Z,0.82
2022-10-20T09:45:20.354Z,0.82
2022-10-20T09:49:20.755Z,0.82
2022-10-20T09:53:21.890Z,0.82
2022-10-20T09:57:20.928Z,0.82
2022-10-20T10:01:46.110Z,0.82
2022-10-20T10:05:20.537Z,0.82
2022-10-20T10:09:21.217Z,0.82
2022-10-20T10:13:24.720Z,0.26
2022-10-20T10:17:20.308Z,0.49
2022-10-20T10:21:20.894Z,0.51
2022-10-20T10:25:20.731Z,0.51
2022-10-20T10:29:20.180Z,0.51
2022-10-20T10:33:20.998Z,0.51
2022-10-20T10:41:20.767Z,0.51
2022-10-20T10:45:20.738Z,0.51
2022-10-20T10:49:20.862Z,0.51
2022-10-20T10:53:20.839Z,0.51
2022-10-20T10:57:24.014Z,0.51
2022-10-20T11:01:26.102Z,0.51
2022-10-20T11:05:21.079Z,0.51
2022-10-20T11:09:20.927Z,0.51
2022-10-20T11:13:24.455Z,0.51
2022-10-20T11:17:20.887Z,0.51
2022-10-20T11:21:20.426Z,0.51
2022-10-20T11:25:20.656Z,0.22
2022-10-20T11:29:20.262Z,0.22
2022-10-20T11:33:21.198Z,0.5
2022-10-20T11:37:20.932Z,0.62
2022-10-20T11:41:27.261Z,0.62
2022-10-20T11:45:20.712Z,0.69
2022-10-20T11:49:26.496Z,0.74
2022-10-20T11:53:20.729Z,0.74
2022-10-20T11:57:20.583Z,0.8
2022-10-20T12:01:23.029Z,0.84
2022-10-20T12:05:20.784Z,0.84
2022-10-20T12:09:47.976Z,0.88
2022-10-20T12:13:21.133Z,0.9
2022-10-20T12:17:20.991Z,0.9
2022-10-20T12:21:20.929Z,0.92
2022-10-20T12:25:21.316Z,0.95
2022-10-20T12:29:21.003Z,0.95
2022-10-20T12:33:21.426Z,0.99
2022-10-20T12:37:20.511Z,1
2022-10-20T12:41:20.120Z,1
2022-10-20T12:45:20.395Z,1.01
2022-10-20T12:49:23.444Z,1.03
2022-10-20T12:53:20.280Z,1.03
2022-10-20T12:57:20.530Z,1.02
2022-10-20T13:01:23.462Z,1.05
2022-10-20T13:05:20.957Z,1.05
2022-10-20T13:09:20.399Z,1.08
2022-10-20T13:13:20.673Z,1.08
2022-10-20T13:17:20.061Z,1.08
2022-10-20T13:21:20.982Z,1.1
2022-10-20T13:25:30.524Z,1.11
2022-10-20T13:29:20.885Z,1.11
2022-10-20T13:34:26.693Z,1.12
2022-10-20T13:37:22.748Z,1.13
2022-10-20T13:41:24.780Z,1.13
2022-10-20T13:45:27.917Z,1.14
2022-10-20T13:49:20.517Z,1.16
2022-10-20T13:53:21.399Z,1.16
2022-10-20T13:57:21.155Z,1.16
2022-10-20T14:01:23.049Z,1.17
2022-10-20T14:05:20.599Z,1.17
2022-10-20T14:09:31.211Z,1.18
2022-10-20T14:13:21.323Z,1.19
2022-10-20T14:17:20.505Z,1.19
2022-10-20T14:21:20.796Z,1.19
2022-10-20T14:25:20.893Z,1.19
2022-10-20T14:29:26.155Z,1.19
2022-10-20T14:33:20.144Z,1.19
2022-10-20T14:37:20.409Z,1.2
2022-10-20T14:41:20.676Z,1.2
2022-10-20T14:45:39.262Z,1.2
2022-10-20T14:49:20.280Z,1.2
2022-10-20T14:53:28.019Z,1.2
2022-10-20T14:57:20.678Z,1.21
2022-10-20T15:01:25.004Z,1.21
2022-10-20T15:05:21.572Z,1.2
2022-10-20T15:09:29.408Z,1.22
2022-10-20T15:13:23.647Z,1.22
2022-10-20T15:17:20.773Z,1.23
2022-10-20T15:21:20.775Z,1.22
2022-10-20T15:25:20.131Z,1.22
2022-10-20T15:29:20.371Z,1.22
2022-10-20T15:33:20.367Z,1.22
2022-10-20T15:37:26.995Z,1.22
2022-10-20T15:41:20.820Z,1.22
2022-10-20T15:45:20.992Z,1.22
2022-10-20T15:49:20.433Z,1.22
2022-10-20T15:53:21.342Z,1.22
2022-10-20T15:57:20.495Z,1.22
2022-10-20T16:01:28.027Z,1.25
2022-10-20T16:05:20.727Z,1.25
2022-10-20T16:09:26.423Z,1.26
2022-10-20T16:13:21.456Z,1.26
2022-10-20T16:17:21.337Z,1.26
2022-10-20T16:21:20.050Z,1.27
2022-10-20T16:25:20.370Z,1.27
2022-10-20T16:29:20.782Z,1.27
2022-10-20T16:33:20.637Z,1.27
2022-10-20T16:37:21.004Z,1.27
2022-10-20T16:41:20.685Z,1.27
2022-10-20T16:45:20.700Z,1.27
2022-10-20T16:49:23.002Z,1.27
2022-10-20T16:53:20.754Z,1.27
2022-10-20T16:57:25.840Z,1.27
2022-10-20T17:01:24.020Z,1.27
2022-10-20T17:05:26.369Z,1.27
2022-10-20T17:09:20.643Z,1.27
2022-10-20T17:13:20.610Z,1.27
2022-10-20T17:17:25.074Z,1.27
2022-10-20T17:21:20.037Z,1.27
2022-10-20T17:25:20.440Z,1.27
2022-10-20T17:29:23.708Z,0.35
2022-10-20T17:33:25.637Z,0.35
2022-10-20T17:37:19.935Z,0.58
2022-10-20T17:41:20.663Z,0.72
2022-10-20T17:45:20.000Z,0.72
2022-10-20T17:49:19.997Z,0.72
2022-10-20T17:53:21.309Z,0.72
2022-10-20T17:57:21.059Z,0.72
2022-10-20T18:02:03.501Z,0.72
2022-10-20T18:05:20.994Z,0.72
2022-10-20T18:09:21.493Z,0.72
2022-10-20T18:13:20.819Z,0.72
2022-10-20T18:17:20.510Z,0.72
2022-10-20T18:21:20.743Z,0.72
2022-10-20T18:25:22.830Z,0.72
2022-10-20T18:29:22.376Z,0.72
2022-10-20T18:33:20.865Z,0.72
2022-10-20T18:37:25.530Z,0.72
2022-10-20T18:41:20.966Z,0.72
2022-10-20T18:45:23.753Z,0.72
2022-10-20T18:49:20.551Z,0.31
2022-10-20T18:53:20.828Z,0.31
2022-10-20T18:57:20.907Z,0.31
2022-10-20T19:01:23.421Z,0.31
2022-10-20T19:05:20.985Z,0.31
2022-10-20T19:09:21.106Z,0.31
2022-10-20T19:13:24.687Z,0.31
2022-10-20T19:17:20.399Z,0.31
2022-10-20T19:25:20.591Z,0.31
2022-10-20T19:29:21.574Z,0.31
2022-10-20T19:33:26.380Z,0.31
2022-10-20T19:37:20.207Z,0.31
2022-10-20T19:41:24.715Z,0.31
2022-10-20T19:45:20.830Z,0.31
2022-10-20T19:49:21.028Z,0.31
2022-10-20T19:53:21.504Z,0.31
2022-10-20T19:57:20.322Z,0.31
2022-10-20T20:01:20.885Z,0.31
2022-10-20T20:05:20.495Z,0.31
2022-10-20T20:09:20.594Z,0.31
2022-10-20T20:13:20.665Z,0.31
2022-10-20T20:17:27.711Z,0.31
2022-10-20T20:21:20.549Z,0.31
2022-10-20T20:25:20.920Z,0.31
2022-10-20T20:29:20.112Z,0.31
2022-10-20T20:33:25.745Z,0.31
2022-10-20T20:37:20.632Z,0.31
2022-10-20T20:41:20.755Z,0.31
2022-10-20T20:45:26.928Z,0.31
2022-10-20T20:49:20.139Z,0.31
2022-10-20T20:53:20.394Z,0.31
2022-10-20T20:57:23.274Z,0.31
2022-10-20T21:01:23.284Z,0.31
2022-10-20T21:05:26.003Z,0.31
2022-10-20T21:09:21.433Z,0.31
2022-10-20T21:13:20.673Z,0.31
2022-10-20T21:17:19.998Z,0.31
2022-10-20T21:21:21.150Z,0.31
2022-10-20T21:25:20.352Z,0.31
2022-10-20T21:29:20.238Z,0.31
2022-10-20T21:33:20.728Z,0.31
2022-10-20T21:37:20.984Z,0.31
2022-10-20T21:41:20.557Z,0.31
2022-10-20T21:45:19.968Z,0.31
2022-10-20T21:49:21.156Z,0.31
2022-10-20T21:53:21.327Z,0.31
2022-10-20T21:57:20.616Z,0.31
2022-10-20T22:01:32.129Z,0.31
2022-10-20T22:05:20.432Z,0.31
2022-10-20T22:09:20.573Z,0.31
2022-10-20T22:13:21.548Z,0.31
2022-10-20T22:17:20.939Z,0.31
2022-10-20T22:21:24.877Z,0.31
2022-10-20T22:25:20.899Z,0.31
2022-10-20T22:29:20.390Z,0.31
2022-10-20T22:33:21.161Z,0.31
2022-10-20T22:37:20.208Z,0.31
2022-10-20T22:41:20.496Z,0.31
2022-10-20T22:45:20.256Z,0.31
2022-10-20T22:49:20.709Z,0.31
2022-10-20T22:53:20.740Z,0.31
2022-10-20T22:57:20.550Z,0.31
2022-10-20T23:01:23.543Z,0.31
2022-10-20T23:05:21.085Z,0.31
2022-10-20T23:09:20.860Z,0.31
2022-10-20T23:13:21.480Z,0.31
2022-10-20T23:17:21.087Z,0.31
2022-10-20T23:21:21.033Z,0.31
2022-10-20T23:25:20.305Z,0.31
2022-10-20T23:29:20.727Z,0.31
2022-10-20T23:33:20.949Z,0.31
2022-10-20T23:37:24.356Z,0.31
2022-10-20T23:41:21.054Z,0.31
2022-10-20T23:45:20.262Z,0.31
2022-10-20T23:49:20.214Z,0.31
2022-10-20T23:53:20.963Z,0.31
2022-10-20T23:57:20.413Z,0.31
